sensor_id;sensor_type;location;lat;lon;timestamp;temperature;humidity
29813;DHT22;16707;48.106;11.548;2022-11-13T00:01:55;4.90;99.90
29813;DHT22;16707;48.106;11.548;2022-11-13T00:04:23;4.70;99.90
29813;DHT22;16707;48.106;11.548;2022-11-13T00:06:50;4.60;99.90
29813;DHT22;16707;48.106;11.548;2022-11-13T00:09:21;4.60;99.90
29813;DHT22;16707;48.106;11.548;2022-11-13T00:11:54;4.60;99.90
29813;DHT22;16707;48.106;11.548;2022-11-13T00:14:21;4.60;99.90
29813;DHT22;16707;48.106;11.548;2022-11-13T00:16:49;4.50;99.90
29813;DHT22;16707;48.106;11.548;2022-11-13T00:19:19;4.70;99.90
29813;DHT22;16707;48.106;11.548;2022-11-13T00:21:49;4.60;99.90
29813;DHT22;16707;48.106;11.548;2022-11-13T00:24:20;4.60;99.90
29813;DHT22;16707;48.106;11.548;2022-11-13T00:26:47;4.50;99.90
29813;DHT22;16707;48.106;11.548;2022-11-13T00:29:14;4.50;99.90
29813;DHT22;16707;48.106;11.548;2022-11-13T00:31:41;4.50;99.90
29813;DHT22;16707;48.106;11.548;2022-11-13T00:34:09;4.60;99.90
29813;DHT22;16707;48.106;11.548;2022-11-13T00:36:39;4.70;99.90
29813;DHT22;16707;48.106;11.548;2022-11-13T00:39:06;4.80;99.90
29813;DHT22;16707;48.106;11.548;2022-11-13T00:41:37;4.80;99.90
29813;DHT22;16707;48.106;11.548;2022-11-13T00:44:08;4.80;99.90
29813;DHT22;16707;48.106;11.548;2022-11-13T00:46:36;4.70;99.90
29813;DHT22;16707;48.106;11.548;2022-11-13T00:49:03;4.50;99.90
29813;DHT22;16707;48.106;11.548;2022-11-13T00:51:31;4.50;99.90
29813;DHT22;16707;48.106;11.548;2022-11-13T00:53:58;4.50;99.90
29813;DHT22;16707;48.106;11.548;2022-11-13T00:56:25;4.50;99.90
29813;DHT22;16707;48.106;11.548;2022-11-13T00:58:59;4.40;99.90
29813;DHT22;16707;48.106;11.548;2022-11-13T01:01:26;4.50;99.90
29813;DHT22;16707;48.106;11.548;2022-11-13T01:04:01;4.50;99.90
29813;DHT22;16707;48.106;11.548;2022-11-13T01:06:31;4.40;99.90
29813;DHT22;16707;48.106;11.548;2022-11-13T01:08:59;4.40;99.90
29813;DHT22;16707;48.106;11.548;2022-11-13T01:11:28;4.40;99.90
29813;DHT22;16707;48.106;11.548;2022-11-13T01:13:57;4.50;99.90
29813;DHT22;16707;48.106;11.548;2022-11-13T01:16:25;4.40;99.90
29813;DHT22;16707;48.106;11.548;2022-11-13T01:18:54;4.40;99.90
29813;DHT22;16707;48.106;11.548;2022-11-13T01:21:27;4.50;99.90
29813;DHT22;16707;48.106;11.548;2022-11-13T01:23:54;4.60;99.90
29813;DHT22;16707;48.106;11.548;2022-11-13T01:26:24;4.60;99.90
29813;DHT22;16707;48.106;11.548;2022-11-13T01:28:51;4.70;99.90
29813;DHT22;16707;48.106;11.548;2022-11-13T01:31:22;4.70;99.90
29813;DHT22;16707;48.106;11.548;2022-11-13T01:33:49;4.70;99.90
29813;DHT22;16707;48.106;11.548;2022-11-13T01:36:17;4.80;99.90
29813;DHT22;16707;48.106;11.548;2022-11-13T01:38:45;4.80;99.90
29813;DHT22;16707;48.106;11.548;2022-11-13T01:41:18;4.80;99.90
29813;DHT22;16707;48.106;11.548;2022-11-13T01:43:46;4.70;99.90
29813;DHT22;16707;48.106;11.548;2022-11-13T01:46:21;4.70;99.90
29813;DHT22;16707;48.106;11.548;2022-11-13T01:48:57;4.80;99.90
29813;DHT22;16707;48.106;11.548;2022-11-13T01:51:32;4.90;99.90
29813;DHT22;16707;48.106;11.548;2022-11-13T01:54:01;4.80;99.90
29813;DHT22;16707;48.106;11.548;2022-11-13T01:56:29;4.90;99.90
29813;DHT22;16707;48.106;11.548;2022-11-13T01:59:00;4.80;99.90
29813;DHT22;16707;48.106;11.548;2022-11-13T02:01:43;4.50;99.90
29813;DHT22;16707;48.106;11.548;2022-11-13T02:04:10;4.50;99.90
29813;DHT22;16707;48.106;11.548;2022-11-13T02:06:41;4.50;99.90
29813;DHT22;16707;48.106;11.548;2022-11-13T02:09:13;4.50;99.90
29813;DHT22;16707;48.106;11.548;2022-11-13T02:11:50;4.60;99.90
29813;DHT22;16707;48.106;11.548;2022-11-13T02:14:29;4.60;99.90
29813;DHT22;16707;48.106;11.548;2022-11-13T02:17:05;4.60;99.90
29813;DHT22;16707;48.106;11.548;2022-11-13T02:19:37;4.50;99.90
29813;DHT22;16707;48.106;11.548;2022-11-13T02:22:19;4.40;99.90
29813;DHT22;16707;48.106;11.548;2022-11-13T02:24:56;4.40;99.90
29813;DHT22;16707;48.106;11.548;2022-11-13T02:27:29;4.10;99.90
29813;DHT22;16707;48.106;11.548;2022-11-13T02:30:11;4.10;99.90
29813;DHT22;16707;48.106;11.548;2022-11-13T02:32:42;4.10;99.90
29813;DHT22;16707;48.106;11.548;2022-11-13T02:35:21;3.90;99.90
29813;DHT22;16707;48.106;11.548;2022-11-13T02:37:58;4.00;99.90
29813;DHT22;16707;48.106;11.548;2022-11-13T02:40:28;4.10;99.90
29813;DHT22;16707;48.106;11.548;2022-11-13T02:42:55;4.00;99.90
29813;DHT22;16707;48.106;11.548;2022-11-13T02:45:26;4.10;99.90
29813;DHT22;16707;48.106;11.548;2022-11-13T02:47:59;4.10;99.90
29813;DHT22;16707;48.106;11.548;2022-11-13T02:50:32;4.10;99.90
29813;DHT22;16707;48.106;11.548;2022-11-13T02:53:02;4.10;99.90
29813;DHT22;16707;48.106;11.548;2022-11-13T02:55:30;4.30;99.90
29813;DHT22;16707;48.106;11.548;2022-11-13T02:57:57;4.40;99.90
29813;DHT22;16707;48.106;11.548;2022-11-13T03:00:24;4.40;99.90
29813;DHT22;16707;48.106;11.548;2022-11-13T03:02:55;4.40;99.90
29813;DHT22;16707;48.106;11.548;2022-11-13T03:05:30;4.50;99.90
29813;DHT22;16707;48.106;11.548;2022-11-13T03:08:01;4.50;99.90
29813;DHT22;16707;48.106;11.548;2022-11-13T03:10:28;4.60;99.90
29813;DHT22;16707;48.106;11.548;2022-11-13T03:13:02;4.60;99.90
29813;DHT22;16707;48.106;11.548;2022-11-13T03:15:33;4.70;99.90
29813;DHT22;16707;48.106;11.548;2022-11-13T03:18:06;4.60;99.90
29813;DHT22;16707;48.106;11.548;2022-11-13T03:20:40;4.60;99.90
29813;DHT22;16707;48.106;11.548;2022-11-13T03:23:11;4.60;99.90
29813;DHT22;16707;48.106;11.548;2022-11-13T03:25:40;4.50;99.90
29813;DHT22;16707;48.106;11.548;2022-11-13T03:28:18;4.50;99.90
29813;DHT22;16707;48.106;11.548;2022-11-13T03:30:57;4.70;99.90
29813;DHT22;16707;48.106;11.548;2022-11-13T03:33:27;4.70;99.90
29813;DHT22;16707;48.106;11.548;2022-11-13T03:35:55;4.70;99.90
29813;DHT22;16707;48.106;11.548;2022-11-13T03:38:24;4.70;99.90
29813;DHT22;16707;48.106;11.548;2022-11-13T03:40:55;4.80;99.90
29813;DHT22;16707;48.106;11.548;2022-11-13T03:43:33;4.70;99.90
29813;DHT22;16707;48.106;11.548;2022-11-13T03:46:04;4.40;99.90
29813;DHT22;16707;48.106;11.548;2022-11-13T03:48:34;4.30;99.90
29813;DHT22;16707;48.106;11.548;2022-11-13T03:51:08;4.30;99.90
29813;DHT22;16707;48.106;11.548;2022-11-13T03:53:36;4.20;99.90
29813;DHT22;16707;48.106;11.548;2022-11-13T03:56:03;4.00;99.90
29813;DHT22;16707;48.106;11.548;2022-11-13T03:58:36;4.00;99.90
29813;DHT22;16707;48.106;11.548;2022-11-13T04:01:04;4.00;99.90
29813;DHT22;16707;48.106;11.548;2022-11-13T04:03:34;3.80;99.90
29813;DHT22;16707;48.106;11.548;2022-11-13T04:06:04;3.70;99.90
29813;DHT22;16707;48.106;11.548;2022-11-13T04:08:34;3.60;99.90
29813;DHT22;16707;48.106;11.548;2022-11-13T04:11:18;3.70;99.90
29813;DHT22;16707;48.106;11.548;2022-11-13T04:13:46;3.60;99.90
29813;DHT22;16707;48.106;11.548;2022-11-13T04:16:13;3.50;99.90
29813;DHT22;16707;48.106;11.548;2022-11-13T04:18:40;3.50;99.90
29813;DHT22;16707;48.106;11.548;2022-11-13T04:21:10;3.50;99.90
29813;DHT22;16707;48.106;11.548;2022-11-13T04:23:37;3.60;99.90
29813;DHT22;16707;48.106;11.548;2022-11-13T04:26:04;3.50;99.90
29813;DHT22;16707;48.106;11.548;2022-11-13T04:28:34;3.50;99.90
29813;DHT22;16707;48.106;11.548;2022-11-13T04:31:03;3.60;99.90
29813;DHT22;16707;48.106;11.548;2022-11-13T04:33:46;3.60;99.90
29813;DHT22;16707;48.106;11.548;2022-11-13T04:36:15;3.50;99.90
29813;DHT22;16707;48.106;11.548;2022-11-13T04:38:43;3.50;99.90
29813;DHT22;16707;48.106;11.548;2022-11-13T04:41:11;3.60;99.90
29813;DHT22;16707;48.106;11.548;2022-11-13T04:43:55;3.70;99.90
29813;DHT22;16707;48.106;11.548;2022-11-13T04:46:23;3.60;99.90
29813;DHT22;16707;48.106;11.548;2022-11-13T04:48:53;3.50;99.90
29813;DHT22;16707;48.106;11.548;2022-11-13T04:51:20;3.70;99.90
29813;DHT22;16707;48.106;11.548;2022-11-13T04:53:47;3.70;99.90
29813;DHT22;16707;48.106;11.548;2022-11-13T04:56:14;3.70;99.90
29813;DHT22;16707;48.106;11.548;2022-11-13T04:58:41;3.60;99.90
29813;DHT22;16707;48.106;11.548;2022-11-13T05:01:08;3.50;99.90
29813;DHT22;16707;48.106;11.548;2022-11-13T05:03:37;3.30;99.90
29813;DHT22;16707;48.106;11.548;2022-11-13T05:06:06;3.20;99.90
29813;DHT22;16707;48.106;11.548;2022-11-13T05:08:36;3.30;99.90
29813;DHT22;16707;48.106;11.548;2022-11-13T05:11:04;3.20;99.90
29813;DHT22;16707;48.106;11.548;2022-11-13T05:13:32;3.20;99.90
29813;DHT22;16707;48.106;11.548;2022-11-13T05:16:01;3.30;99.90
29813;DHT22;16707;48.106;11.548;2022-11-13T05:18:35;3.30;99.90
29813;DHT22;16707;48.106;11.548;2022-11-13T05:21:08;3.30;99.90
29813;DHT22;16707;48.106;11.548;2022-11-13T05:23:38;3.30;99.90
29813;DHT22;16707;48.106;11.548;2022-11-13T05:26:06;3.00;99.90
29813;DHT22;16707;48.106;11.548;2022-11-13T05:28:34;3.10;99.90
29813;DHT22;16707;48.106;11.548;2022-11-13T05:31:05;3.20;99.90
29813;DHT22;16707;48.106;11.548;2022-11-13T05:33:36;3.20;99.90
29813;DHT22;16707;48.106;11.548;2022-11-13T05:36:13;3.10;99.90
29813;DHT22;16707;48.106;11.548;2022-11-13T05:38:43;3.20;99.90
29813;DHT22;16707;48.106;11.548;2022-11-13T05:41:12;3.10;99.90
29813;DHT22;16707;48.106;11.548;2022-11-13T05:43:43;3.10;99.90
29813;DHT22;16707;48.106;11.548;2022-11-13T05:46:11;3.00;99.90
29813;DHT22;16707;48.106;11.548;2022-11-13T05:48:39;2.80;99.90
29813;DHT22;16707;48.106;11.548;2022-11-13T05:51:11;2.90;99.90
29813;DHT22;16707;48.106;11.548;2022-11-13T05:53:39;3.10;99.90
29813;DHT22;16707;48.106;11.548;2022-11-13T05:56:08;3.10;99.90
29813;DHT22;16707;48.106;11.548;2022-11-13T05:58:39;3.10;99.90
29813;DHT22;16707;48.106;11.548;2022-11-13T06:01:09;3.20;99.90
29813;DHT22;16707;48.106;11.548;2022-11-13T06:03:37;3.00;99.90
29813;DHT22;16707;48.106;11.548;2022-11-13T06:06:05;2.90;99.90
29813;DHT22;16707;48.106;11.548;2022-11-13T06:08:34;3.00;99.90
29813;DHT22;16707;48.106;11.548;2022-11-13T06:11:04;2.90;99.90
29813;DHT22;16707;48.106;11.548;2022-11-13T06:13:32;2.80;99.90
29813;DHT22;16707;48.106;11.548;2022-11-13T06:16:02;2.80;99.90
29813;DHT22;16707;48.106;11.548;2022-11-13T06:18:30;2.70;99.90
29813;DHT22;16707;48.106;11.548;2022-11-13T06:21:00;2.90;99.90
29813;DHT22;16707;48.106;11.548;2022-11-13T06:23:27;2.70;99.90
29813;DHT22;16707;48.106;11.548;2022-11-13T06:26:01;2.80;99.90
29813;DHT22;16707;48.106;11.548;2022-11-13T06:28:34;2.70;99.90
29813;DHT22;16707;48.106;11.548;2022-11-13T06:31:02;2.70;99.90
29813;DHT22;16707;48.106;11.548;2022-11-13T06:33:30;2.70;99.90
29813;DHT22;16707;48.106;11.548;2022-11-13T06:35:57;2.90;99.90
29813;DHT22;16707;48.106;11.548;2022-11-13T06:38:29;2.90;99.90
29813;DHT22;16707;48.106;11.548;2022-11-13T06:41:01;2.90;99.90
29813;DHT22;16707;48.106;11.548;2022-11-13T06:43:29;3.00;99.90
29813;DHT22;16707;48.106;11.548;2022-11-13T06:45:57;3.20;99.90
29813;DHT22;16707;48.106;11.548;2022-11-13T06:48:24;3.20;99.90
29813;DHT22;16707;48.106;11.548;2022-11-13T06:50:51;3.30;99.90
29813;DHT22;16707;48.106;11.548;2022-11-13T06:53:18;3.30;99.90
29813;DHT22;16707;48.106;11.548;2022-11-13T06:55:47;3.40;99.90
29813;DHT22;16707;48.106;11.548;2022-11-13T06:58:16;3.60;99.90
29813;DHT22;16707;48.106;11.548;2022-11-13T07:00:45;3.70;99.90
29813;DHT22;16707;48.106;11.548;2022-11-13T07:03:15;3.80;99.90
29813;DHT22;16707;48.106;11.548;2022-11-13T07:05:43;3.60;99.90
29813;DHT22;16707;48.106;11.548;2022-11-13T07:08:10;3.60;99.90
29813;DHT22;16707;48.106;11.548;2022-11-13T07:10:38;3.80;99.90
29813;DHT22;16707;48.106;11.548;2022-11-13T07:13:07;3.80;99.90
29813;DHT22;16707;48.106;11.548;2022-11-13T07:15:38;3.80;99.90
29813;DHT22;16707;48.106;11.548;2022-11-13T07:18:06;3.70;99.90
29813;DHT22;16707;48.106;11.548;2022-11-13T07:20:33;3.60;99.90
29813;DHT22;16707;48.106;11.548;2022-11-13T07:23:02;3.60;99.90
29813;DHT22;16707;48.106;11.548;2022-11-13T07:25:30;3.40;99.90
29813;DHT22;16707;48.106;11.548;2022-11-13T07:27:57;3.70;99.90
29813;DHT22;16707;48.106;11.548;2022-11-13T07:30:24;3.60;99.90
29813;DHT22;16707;48.106;11.548;2022-11-13T07:32:53;3.70;99.90
29813;DHT22;16707;48.106;11.548;2022-11-13T07:35:20;3.80;99.90
29813;DHT22;16707;48.106;11.548;2022-11-13T07:37:47;3.60;99.90
29813;DHT22;16707;48.106;11.548;2022-11-13T07:40:15;3.70;99.90
29813;DHT22;16707;48.106;11.548;2022-11-13T07:42:42;3.60;99.90
29813;DHT22;16707;48.106;11.548;2022-11-13T07:45:10;3.80;99.90
29813;DHT22;16707;48.106;11.548;2022-11-13T07:47:38;3.90;99.90
29813;DHT22;16707;48.106;11.548;2022-11-13T07:50:07;4.00;99.90
29813;DHT22;16707;48.106;11.548;2022-11-13T07:52:35;4.00;99.90
29813;DHT22;16707;48.106;11.548;2022-11-13T07:55:02;3.80;99.90
29813;DHT22;16707;48.106;11.548;2022-11-13T07:57:29;3.60;99.90
29813;DHT22;16707;48.106;11.548;2022-11-13T07:59:56;3.30;99.90
29813;DHT22;16707;48.106;11.548;2022-11-13T08:02:23;3.40;99.90
29813;DHT22;16707;48.106;11.548;2022-11-13T08:04:50;3.40;99.90
29813;DHT22;16707;48.106;11.548;2022-11-13T08:07:19;3.50;99.90
29813;DHT22;16707;48.106;11.548;2022-11-13T08:09:46;3.60;99.90
29813;DHT22;16707;48.106;11.548;2022-11-13T08:12:13;3.60;99.90
29813;DHT22;16707;48.106;11.548;2022-11-13T08:14:43;3.80;99.90
29813;DHT22;16707;48.106;11.548;2022-11-13T08:17:10;3.70;99.90
29813;DHT22;16707;48.106;11.548;2022-11-13T08:19:37;3.70;99.90
29813;DHT22;16707;48.106;11.548;2022-11-13T08:22:05;4.00;99.90
29813;DHT22;16707;48.106;11.548;2022-11-13T08:24:37;4.10;99.90
29813;DHT22;16707;48.106;11.548;2022-11-13T08:27:06;4.30;99.90
29813;DHT22;16707;48.106;11.548;2022-11-13T08:29:33;4.50;99.90
29813;DHT22;16707;48.106;11.548;2022-11-13T08:32:02;4.70;99.90
29813;DHT22;16707;48.106;11.548;2022-11-13T08:34:32;4.80;99.90
29813;DHT22;16707;48.106;11.548;2022-11-13T08:37:01;5.10;99.90
29813;DHT22;16707;48.106;11.548;2022-11-13T08:39:28;4.90;99.90
29813;DHT22;16707;48.106;11.548;2022-11-13T08:41:57;4.90;99.90
29813;DHT22;16707;48.106;11.548;2022-11-13T08:44:24;4.90;99.90
29813;DHT22;16707;48.106;11.548;2022-11-13T08:46:51;5.20;99.90
29813;DHT22;16707;48.106;11.548;2022-11-13T08:49:18;5.20;99.90
29813;DHT22;16707;48.106;11.548;2022-11-13T08:51:45;5.40;99.90
29813;DHT22;16707;48.106;11.548;2022-11-13T08:54:12;5.40;99.90
29813;DHT22;16707;48.106;11.548;2022-11-13T08:56:39;5.10;99.90
29813;DHT22;16707;48.106;11.548;2022-11-13T08:59:08;4.90;99.90
29813;DHT22;16707;48.106;11.548;2022-11-13T09:01:35;5.10;99.90
29813;DHT22;16707;48.106;11.548;2022-11-13T09:04:02;5.40;99.90
29813;DHT22;16707;48.106;11.548;2022-11-13T09:06:29;5.60;99.90
29813;DHT22;16707;48.106;11.548;2022-11-13T09:08:56;5.80;99.90
29813;DHT22;16707;48.106;11.548;2022-11-13T09:11:23;5.80;99.90
29813;DHT22;16707;48.106;11.548;2022-11-13T09:13:52;5.90;99.90
29813;DHT22;16707;48.106;11.548;2022-11-13T09:16:23;5.60;99.90
29813;DHT22;16707;48.106;11.548;2022-11-13T09:18:53;5.60;99.90
29813;DHT22;16707;48.106;11.548;2022-11-13T09:21:20;5.40;99.90
29813;DHT22;16707;48.106;11.548;2022-11-13T09:23:47;5.50;99.90
29813;DHT22;16707;48.106;11.548;2022-11-13T09:26:14;5.80;99.90
29813;DHT22;16707;48.106;11.548;2022-11-13T09:28:42;5.90;99.90
29813;DHT22;16707;48.106;11.548;2022-11-13T09:31:09;6.00;99.90
29813;DHT22;16707;48.106;11.548;2022-11-13T09:33:37;5.80;99.90
29813;DHT22;16707;48.106;11.548;2022-11-13T09:36:09;5.60;99.90
29813;DHT22;16707;48.106;11.548;2022-11-13T09:38:37;5.60;99.90
29813;DHT22;16707;48.106;11.548;2022-11-13T09:41:08;5.70;99.90
29813;DHT22;16707;48.106;11.548;2022-11-13T09:43:40;5.90;99.90
29813;DHT22;16707;48.106;11.548;2022-11-13T09:46:17;6.00;99.90
29813;DHT22;16707;48.106;11.548;2022-11-13T09:48:52;6.30;99.90
29813;DHT22;16707;48.106;11.548;2022-11-13T09:51:23;6.40;99.90
29813;DHT22;16707;48.106;11.548;2022-11-13T09:53:51;6.30;99.90
29813;DHT22;16707;48.106;11.548;2022-11-13T09:56:26;6.10;99.90
29813;DHT22;16707;48.106;11.548;2022-11-13T09:59:03;6.00;99.90
29813;DHT22;16707;48.106;11.548;2022-11-13T10:01:42;5.80;99.90
29813;DHT22;16707;48.106;11.548;2022-11-13T10:04:16;5.90;99.90
29813;DHT22;16707;48.106;11.548;2022-11-13T10:06:56;6.40;99.90
29813;DHT22;16707;48.106;11.548;2022-11-13T10:09:35;6.70;99.90
29813;DHT22;16707;48.106;11.548;2022-11-13T10:12:05;7.00;99.90
29813;DHT22;16707;48.106;11.548;2022-11-13T10:14:37;7.00;99.90
29813;DHT22;16707;48.106;11.548;2022-11-13T10:17:12;7.00;99.90
29813;DHT22;16707;48.106;11.548;2022-11-13T10:19:52;7.10;99.90
29813;DHT22;16707;48.106;11.548;2022-11-13T10:22:27;6.90;99.90
29813;DHT22;16707;48.106;11.548;2022-11-13T10:25:02;7.10;99.90
29813;DHT22;16707;48.106;11.548;2022-11-13T10:27:30;7.40;99.90
29813;DHT22;16707;48.106;11.548;2022-11-13T10:29:57;7.80;99.90
29813;DHT22;16707;48.106;11.548;2022-11-13T10:32:26;8.00;99.90
29813;DHT22;16707;48.106;11.548;2022-11-13T10:35:00;8.00;99.90
29813;DHT22;16707;48.106;11.548;2022-11-13T10:37:49;7.40;99.90
29813;DHT22;16707;48.106;11.548;2022-11-13T10:40:25;7.60;99.90
29813;DHT22;16707;48.106;11.548;2022-11-13T10:42:52;6.90;99.90
29813;DHT22;16707;48.106;11.548;2022-11-13T10:45:20;7.10;99.90
29813;DHT22;16707;48.106;11.548;2022-11-13T10:47:49;7.10;99.90
29813;DHT22;16707;48.106;11.548;2022-11-13T10:50:24;7.30;99.90
29813;DHT22;16707;48.106;11.548;2022-11-13T10:52:53;7.70;99.90
29813;DHT22;16707;48.106;11.548;2022-11-13T10:55:37;7.80;99.90
29813;DHT22;16707;48.106;11.548;2022-11-13T10:58:13;7.90;99.90
29813;DHT22;16707;48.106;11.548;2022-11-13T11:00:41;8.10;99.90
29813;DHT22;16707;48.106;11.548;2022-11-13T11:03:17;7.90;99.90
29813;DHT22;16707;48.106;11.548;2022-11-13T11:05:54;8.10;99.90
29813;DHT22;16707;48.106;11.548;2022-11-13T11:08:29;7.90;99.90
29813;DHT22;16707;48.106;11.548;2022-11-13T11:10:59;7.90;99.90
29813;DHT22;16707;48.106;11.548;2022-11-13T11:13:43;7.60;99.90
29813;DHT22;16707;48.106;11.548;2022-11-13T11:16:15;7.20;99.90
29813;DHT22;16707;48.106;11.548;2022-11-13T11:18:50;7.40;99.90
29813;DHT22;16707;48.106;11.548;2022-11-13T11:21:24;7.50;99.90
29813;DHT22;16707;48.106;11.548;2022-11-13T11:23:56;7.50;99.90
29813;DHT22;16707;48.106;11.548;2022-11-13T11:26:31;7.60;99.90
29813;DHT22;16707;48.106;11.548;2022-11-13T11:29:15;7.50;99.90
29813;DHT22;16707;48.106;11.548;2022-11-13T11:31:49;7.50;99.90
29813;DHT22;16707;48.106;11.548;2022-11-13T11:34:27;7.30;99.90
29813;DHT22;16707;48.106;11.548;2022-11-13T11:37:04;7.60;99.90
29813;DHT22;16707;48.106;11.548;2022-11-13T11:39:45;7.80;99.90
29813;DHT22;16707;48.106;11.548;2022-11-13T11:42:20;7.90;99.90
29813;DHT22;16707;48.106;11.548;2022-11-13T11:45:01;8.00;99.90
29813;DHT22;16707;48.106;11.548;2022-11-13T11:47:29;7.90;99.90
29813;DHT22;16707;48.106;11.548;2022-11-13T11:49:57;8.10;99.90
29813;DHT22;16707;48.106;11.548;2022-11-13T11:52:40;8.30;99.90
29813;DHT22;16707;48.106;11.548;2022-11-13T11:55:34;8.40;99.90
29813;DHT22;16707;48.106;11.548;2022-11-13T11:58:13;8.50;99.90
29813;DHT22;16707;48.106;11.548;2022-11-13T12:00:51;8.40;99.90
29813;DHT22;16707;48.106;11.548;2022-11-13T12:03:50;8.40;99.90
29813;DHT22;16707;48.106;11.548;2022-11-13T12:06:30;8.50;99.90
29813;DHT22;16707;48.106;11.548;2022-11-13T12:09:07;8.60;99.90
29813;DHT22;16707;48.106;11.548;2022-11-13T12:11:42;8.60;99.90
29813;DHT22;16707;48.106;11.548;2022-11-13T12:14:19;8.90;99.90
29813;DHT22;16707;48.106;11.548;2022-11-13T12:17:01;8.90;99.90
29813;DHT22;16707;48.106;11.548;2022-11-13T12:19:39;8.60;99.90
29813;DHT22;16707;48.106;11.548;2022-11-13T12:22:16;8.80;99.90
29813;DHT22;16707;48.106;11.548;2022-11-13T12:25:02;8.90;99.90
29813;DHT22;16707;48.106;11.548;2022-11-13T12:27:40;9.10;99.90
29813;DHT22;16707;48.106;11.548;2022-11-13T12:30:13;9.30;99.90
29813;DHT22;16707;48.106;11.548;2022-11-13T12:32:56;9.40;99.90
29813;DHT22;16707;48.106;11.548;2022-11-13T12:35:25;9.60;99.90
29813;DHT22;16707;48.106;11.548;2022-11-13T12:38:00;9.60;99.90
29813;DHT22;16707;48.106;11.548;2022-11-13T12:40:35;9.70;99.90
29813;DHT22;16707;48.106;11.548;2022-11-13T12:43:30;9.80;99.90
29813;DHT22;16707;48.106;11.548;2022-11-13T12:46:09;9.80;99.90
29813;DHT22;16707;48.106;11.548;2022-11-13T12:48:37;9.70;99.90
29813;DHT22;16707;48.106;11.548;2022-11-13T12:51:09;9.80;99.90
29813;DHT22;16707;48.106;11.548;2022-11-13T12:53:46;9.90;99.90
29813;DHT22;16707;48.106;11.548;2022-11-13T12:56:29;9.90;99.90
29813;DHT22;16707;48.106;11.548;2022-11-13T12:58:58;10.00;99.90
29813;DHT22;16707;48.106;11.548;2022-11-13T13:01:34;10.10;99.90
29813;DHT22;16707;48.106;11.548;2022-11-13T13:04:27;10.20;99.90
29813;DHT22;16707;48.106;11.548;2022-11-13T13:07:13;10.20;99.90
29813;DHT22;16707;48.106;11.548;2022-11-13T13:09:57;10.30;99.90
29813;DHT22;16707;48.106;11.548;2022-11-13T13:12:39;10.30;99.90
29813;DHT22;16707;48.106;11.548;2022-11-13T13:15:29;10.30;99.90
29813;DHT22;16707;48.106;11.548;2022-11-13T13:18:10;10.20;99.90
29813;DHT22;16707;48.106;11.548;2022-11-13T13:20:40;10.20;99.90
29813;DHT22;16707;48.106;11.548;2022-11-13T13:23:12;10.20;99.90
29813;DHT22;16707;48.106;11.548;2022-11-13T13:25:40;10.10;99.90
29813;DHT22;16707;48.106;11.548;2022-11-13T13:28:19;10.20;99.90
29813;DHT22;16707;48.106;11.548;2022-11-13T13:30:55;10.20;99.90
29813;DHT22;16707;48.106;11.548;2022-11-13T13:33:42;10.20;99.90
29813;DHT22;16707;48.106;11.548;2022-11-13T13:36:21;10.30;99.90
29813;DHT22;16707;48.106;11.548;2022-11-13T13:38:59;10.50;99.90
29813;DHT22;16707;48.106;11.548;2022-11-13T13:41:38;10.50;99.90
29813;DHT22;16707;48.106;11.548;2022-11-13T13:44:36;10.40;99.90
29813;DHT22;16707;48.106;11.548;2022-11-13T13:47:13;10.30;99.90
29813;DHT22;16707;48.106;11.548;2022-11-13T13:49:45;10.50;99.90
29813;DHT22;16707;48.106;11.548;2022-11-13T13:52:14;10.50;99.90
29813;DHT22;16707;48.106;11.548;2022-11-13T13:54:41;10.50;99.90
29813;DHT22;16707;48.106;11.548;2022-11-13T13:57:13;10.40;99.90
29813;DHT22;16707;48.106;11.548;2022-11-13T13:59:43;10.40;99.90
29813;DHT22;16707;48.106;11.548;2022-11-13T14:02:18;10.50;99.90
29813;DHT22;16707;48.106;11.548;2022-11-13T14:04:49;10.50;99.90
29813;DHT22;16707;48.106;11.548;2022-11-13T14:07:23;10.50;99.90
29813;DHT22;16707;48.106;11.548;2022-11-13T14:10:06;10.40;99.90
29813;DHT22;16707;48.106;11.548;2022-11-13T14:12:33;10.40;99.90
29813;DHT22;16707;48.106;11.548;2022-11-13T14:15:04;10.40;99.90
29813;DHT22;16707;48.106;11.548;2022-11-13T14:17:41;10.30;99.90
29813;DHT22;16707;48.106;11.548;2022-11-13T14:20:11;10.20;99.90
29813;DHT22;16707;48.106;11.548;2022-11-13T14:22:39;10.30;99.90
29813;DHT22;16707;48.106;11.548;2022-11-13T14:25:21;10.60;99.90
29813;DHT22;16707;48.106;11.548;2022-11-13T14:27:49;10.50;99.90
29813;DHT22;16707;48.106;11.548;2022-11-13T14:30:23;10.30;99.90
29813;DHT22;16707;48.106;11.548;2022-11-13T14:32:52;10.20;99.90
29813;DHT22;16707;48.106;11.548;2022-11-13T14:35:21;10.00;99.90
29813;DHT22;16707;48.106;11.548;2022-11-13T14:37:51;9.90;99.90
29813;DHT22;16707;48.106;11.548;2022-11-13T14:40:21;9.80;99.90
29813;DHT22;16707;48.106;11.548;2022-11-13T14:42:52;9.70;99.90
29813;DHT22;16707;48.106;11.548;2022-11-13T14:45:23;9.60;99.90
29813;DHT22;16707;48.106;11.548;2022-11-13T14:47:57;9.60;99.90
29813;DHT22;16707;48.106;11.548;2022-11-13T14:50:28;9.50;99.90
29813;DHT22;16707;48.106;11.548;2022-11-13T14:52:58;9.50;99.90
29813;DHT22;16707;48.106;11.548;2022-11-13T14:55:28;9.40;99.90
29813;DHT22;16707;48.106;11.548;2022-11-13T14:57:56;9.30;99.90
29813;DHT22;16707;48.106;11.548;2022-11-13T15:00:30;9.30;99.90
29813;DHT22;16707;48.106;11.548;2022-11-13T15:02:59;9.20;99.90
29813;DHT22;16707;48.106;11.548;2022-11-13T15:05:27;9.20;99.90
29813;DHT22;16707;48.106;11.548;2022-11-13T15:07:58;9.00;99.90
29813;DHT22;16707;48.106;11.548;2022-11-13T15:10:26;8.90;99.90
29813;DHT22;16707;48.106;11.548;2022-11-13T15:12:55;8.90;99.90
29813;DHT22;16707;48.106;11.548;2022-11-13T15:15:26;8.70;99.90
29813;DHT22;16707;48.106;11.548;2022-11-13T15:17:55;8.60;99.90
29813;DHT22;16707;48.106;11.548;2022-11-13T15:20:24;8.50;99.90
29813;DHT22;16707;48.106;11.548;2022-11-13T15:22:57;8.40;99.90
29813;DHT22;16707;48.106;11.548;2022-11-13T15:25:28;8.20;99.90
29813;DHT22;16707;48.106;11.548;2022-11-13T15:27:58;8.10;99.90
29813;DHT22;16707;48.106;11.548;2022-11-13T15:30:25;8.00;99.90
29813;DHT22;16707;48.106;11.548;2022-11-13T15:32:54;7.90;99.90
29813;DHT22;16707;48.106;11.548;2022-11-13T15:35:21;7.80;99.90
29813;DHT22;16707;48.106;11.548;2022-11-13T15:37:48;7.70;99.90
29813;DHT22;16707;48.106;11.548;2022-11-13T15:40:15;7.60;99.90
29813;DHT22;16707;48.106;11.548;2022-11-13T15:42:45;7.50;99.90
29813;DHT22;16707;48.106;11.548;2022-11-13T15:45:16;7.30;99.90
29813;DHT22;16707;48.106;11.548;2022-11-13T15:47:43;7.10;99.90
29813;DHT22;16707;48.106;11.548;2022-11-13T15:50:11;7.10;99.90
29813;DHT22;16707;48.106;11.548;2022-11-13T15:52:40;7.00;99.90
29813;DHT22;16707;48.106;11.548;2022-11-13T15:55:18;7.00;99.90
29813;DHT22;16707;48.106;11.548;2022-11-13T15:57:45;7.00;99.90